CheckWX is a tool to help pilots better visualize weather data.  It is not intended as a substitute for an official pre-flight weather briefing.

16:04:39 UTC

LIRL TAF
Latina Airport
Latina, Italy
TAF LIRL 181400Z 1815/1824 19012KT 9999 SCT020 SCT030 BECMG 1819/1821 13005KT

Mar-18@
15:00 UTC

Mar-18 @ 15:00 UTC

Mar-18@
19:00 UTC

Mar-18 @ 19:00 UTC

TAF LIRL 181400Z 1815/1824 19012KT 9999 SCT020 SCT030
Wind
  • 190° at 12 KTS
Cloud Levels
  • Scattered at 2,000' AGL
  • Scattered at 3,000' AGL

Mar-18@
19:00 UTC

Mar-18 @ 19:00 UTC

Mar-19@
00:00 UTC

Mar-19 @ 00:00 UTC

BECMG 1819/1821 13005KT

Becoming

Becoming Conditions expected by Mon, Mar 18, 2019 @ 21:00 UTC

Wind
  • 130° at 5 KTS
Cloud Levels
  • Scattered at 2,000' AGL
  • Scattered at 3,000' AGL